Time;durP1;ratioP1;P1;durP2;ratioP2;P2;SDS_P1;SDS_P2;PMS_P1;PMS_P2;Temp;Humidity;BMP_temperature;BMP_pressure;BME280_temperature;BME280_humidity;BME280_pressure;Samples;Min_cycle;Max_cycle;Signal;HPM_P1;HPM_P2
2023/01/21 00:02:03;;;;;;;64.18;24.35;;;-0.30;99.90;;;;;;5074001;28;20136;-82
2023/01/21 00:04:28;;;;;;;70.63;26.10;;;-0.30;99.90;;;;;;5059596;28;20097;-86
2023/01/21 00:06:54;;;;;;;67.93;25.13;;;-0.20;99.90;;;;;;5076536;28;20055;-83
2023/01/21 00:09:20;;;;;;;61.47;25.13;;;-0.30;99.90;;;;;;5062654;28;20039;-83
2023/01/21 00:11:45;;;;;;;67.80;24.48;;;-0.30;99.90;;;;;;5071794;28;20060;-82
2023/01/21 00:14:13;;;;;;;64.03;23.75;;;-0.30;99.90;;;;;;5069234;28;20047;-83
2023/01/21 00:16:39;;;;;;;64.57;24.05;;;-0.20;99.90;;;;;;5042514;28;20054;-83
2023/01/21 00:19:05;;;;;;;63.83;25.52;;;-0.20;99.90;;;;;;5080695;28;20043;-84
2023/01/21 00:21:30;;;;;;;69.05;25.33;;;-0.20;99.90;;;;;;5076068;28;20050;-85
2023/01/21 00:23:56;;;;;;;59.67;24.10;;;-0.20;99.90;;;;;;5058150;28;20040;-84
2023/01/21 00:26:22;;;;;;;67.38;25.52;;;-0.20;99.90;;;;;;5051528;28;20044;-83
2023/01/21 00:28:47;;;;;;;65.95;24.95;;;-0.20;99.90;;;;;;5090557;28;20049;-83
2023/01/21 00:31:13;;;;;;;70.60;25.35;;;-0.20;99.90;;;;;;5073854;28;20625;-83
2023/01/21 00:33:39;;;;;;;68.43;25.00;;;0.00;99.90;;;;;;5063396;28;20054;-84
2023/01/21 00:36:10;;;;;;;74.63;23.90;;;-0.20;99.90;;;;;;5065049;28;20071;-84
2023/01/21 00:38:38;;;;;;;71.38;25.65;;;-0.20;99.90;;;;;;5074361;28;20047;-87
2023/01/21 00:41:07;;;;;;;65.78;24.05;;;-0.10;99.90;;;;;;5066423;28;20742;-82
2023/01/21 00:43:33;;;;;;;61.85;24.10;;;-0.20;99.90;;;;;;5070397;28;20366;-83
2023/01/21 00:45:59;;;;;;;67.05;24.63;;;-0.20;99.90;;;;;;5083446;28;20620;-85
2023/01/21 00:48:25;;;;;;;69.55;25.00;;;-0.20;99.90;;;;;;5064177;28;20071;-83
2023/01/21 00:50:52;;;;;;;71.18;25.08;;;-0.10;99.90;;;;;;5067150;28;20085;-82
2023/01/21 00:53:18;;;;;;;62.90;24.35;;;-0.20;99.90;;;;;;5062750;28;20043;-83
2023/01/21 00:55:43;;;;;;;64.72;24.58;;;-0.20;99.90;;;;;;5092375;28;20412;-83
2023/01/21 00:58:09;;;;;;;69.07;25.65;;;-0.20;99.90;;;;;;5049008;28;20122;-83
2023/01/21 01:00:35;;;;;;;75.60;26.02;;;-0.20;99.90;;;;;;5075376;28;20075;-83
2023/01/21 01:03:00;;;;;;;70.60;25.25;;;-0.20;99.90;;;;;;5072688;28;20040;-83
2023/01/21 01:05:26;;;;;;;68.35;25.08;;;-0.20;99.90;;;;;;5092878;28;20481;-83
2023/01/21 01:07:52;;;;;;;68.90;26.27;;;-0.10;99.90;;;;;;5089435;28;20463;-82
2023/01/21 01:10:18;;;;;;;72.68;26.58;;;-0.10;99.90;;;;;;5058163;28;20049;-83
2023/01/21 01:12:43;;;;;;;72.80;27.70;;;-0.10;99.90;;;;;;5068406;28;20532;-83
2023/01/21 01:15:09;;;;;;;66.07;24.48;;;-0.10;99.90;;;;;;5087358;28;20164;-83
2023/01/21 01:17:35;;;;;;;69.47;24.83;;;-0.10;99.90;;;;;;5071622;28;20048;-83
2023/01/21 01:20:01;;;;;;;66.05;25.77;;;-0.20;99.90;;;;;;5083269;28;20046;-83
2023/01/21 01:22:27;;;;;;;71.25;26.60;;;-0.20;99.90;;;;;;5079344;28;20036;-83
2023/01/21 01:24:53;;;;;;;76.68;26.98;;;-0.20;99.90;;;;;;5079834;28;20509;-83
2023/01/21 01:27:18;;;;;;;70.28;24.35;;;-0.30;99.90;;;;;;5055752;28;20039;-83
2023/01/21 01:29:44;;;;;;;70.90;24.83;;;-0.30;99.90;;;;;;5069235;28;20489;-83
2023/01/21 01:32:10;;;;;;;71.88;25.08;;;-0.40;99.90;;;;;;5084322;28;20040;-83
2023/01/21 01:34:36;;;;;;;71.40;25.75;;;-0.40;99.90;;;;;;5075045;28;20131;-82
2023/01/21 01:37:05;;;;;;;76.13;27.67;;;-0.50;99.90;;;;;;5066508;28;20070;-83
2023/01/21 01:39:30;;;;;;;76.18;25.42;;;-0.40;99.90;;;;;;5085690;28;20089;-83
2023/01/21 01:41:56;;;;;;;69.50;23.48;;;-0.60;99.90;;;;;;5052325;28;20051;-82
2023/01/21 01:45:11;;;;;;;79.28;26.88;;;-0.70;99.90;;;;;;5089526;28;20043;-84
2023/01/21 01:47:44;;;;;;;85.18;27.17;;;-0.80;99.90;;;;;;5041261;28;20399;-84
2023/01/21 01:50:13;;;;;;;79.15;24.75;;;-1.00;99.90;;;;;;5068641;28;20064;-82
2023/01/21 01:52:41;;;;;;;83.32;26.15;;;-1.00;99.90;;;;;;5085966;28;20048;-83
2023/01/21 01:55:09;;;;;;;81.10;26.00;;;-1.00;99.90;;;;;;5089304;28;20078;-82
2023/01/21 01:57:40;;;;;;;94.03;27.58;;;-1.10;99.90;;;;;;5050744;28;20085;-82
2023/01/21 02:00:08;;;;;;;84.75;26.40;;;-1.00;99.90;;;;;;5061572;28;20036;-82
2023/01/21 02:02:35;;;;;;;100.88;26.92;;;-1.00;99.90;;;;;;5071779;28;20055;-83
2023/01/21 02:05:06;;;;;;;96.78;27.23;;;-1.00;99.90;;;;;;5074568;28;20164;-82
2023/01/21 02:07:39;;;;;;;96.43;27.45;;;-0.90;99.90;;;;;;5074386;28;20035;-82
2023/01/21 02:10:07;;;;;;;94.13;28.27;;;-0.90;99.90;;;;;;5068394;28;20051;-82
2023/01/21 02:12:34;;;;;;;99.13;28.10;;;-0.90;99.90;;;;;;5067423;28;20067;-82
2023/01/21 02:15:00;;;;;;;103.13;29.42;;;-0.90;99.90;;;;;;5081567;28;20066;-82
2023/01/21 02:17:49;;;;;;;96.57;28.83;;;-0.80;99.90;;;;;;5077043;28;20048;-86
2023/01/21 02:20:29;;;;;;;100.43;28.63;;;-0.80;99.90;;;;;;5088087;28;20044;-82
2023/01/21 02:23:00;;;;;;;102.15;28.90;;;-0.80;99.90;;;;;;5078029;28;20059;-82
2023/01/21 02:25:56;;;;;;;102.65;29.00;;;-0.80;99.90;;;;;;5074237;28;20052;-82
2023/01/21 02:28:36;;;;;;;93.90;28.77;;;-0.70;99.90;;;;;;5071815;28;20055;-82
2023/01/21 02:31:05;;;;;;;99.90;27.45;;;-0.70;99.90;;;;;;5088934;28;20044;-84
2023/01/21 02:34:17;;;;;;;99.38;27.92;;;-0.60;99.90;;;;;;5073216;28;20054;-82
2023/01/21 02:37:25;;;;;;;92.65;26.83;;;-0.60;99.90;;;;;;5016233;28;20097;-84
2023/01/21 02:40:27;;;;;;;97.80;26.92;;;-0.50;99.90;;;;;;5043293;28;20192;-83
2023/01/21 02:43:05;;;;;;;105.22;28.40;;;-0.50;99.90;;;;;;5068860;28;20405;-86
2023/01/21 02:46:00;;;;;;;99.10;28.00;;;-0.40;99.90;;;;;;5073124;28;20048;-82
2023/01/21 02:48:38;;;;;;;111.22;29.45;;;-0.40;99.90;;;;;;5070436;28;20105;-82
2023/01/21 02:51:04;;;;;;;114.07;28.75;;;-0.40;99.90;;;;;;5077279;28;20058;-83
2023/01/21 02:53:35;;;;;;;108.30;30.70;;;-0.30;99.90;;;;;;5068829;28;20046;-83
2023/01/21 02:56:06;;;;;;;112.90;29.08;;;-0.40;99.90;;;;;;5063656;28;20078;-83
2023/01/21 02:58:36;;;;;;;107.03;29.75;;;-0.40;99.90;;;;;;5085653;28;20492;-82
2023/01/21 03:01:11;;;;;;;107.82;29.90;;;-0.40;99.90;;;;;;5075961;28;20126;-82
2023/01/21 03:04:05;;;;;;;117.20;29.48;;;-0.40;99.90;;;;;;5075277;28;20396;-81
2023/01/21 03:07:01;;;;;;;116.57;29.45;;;-0.40;99.90;;;;;;5070779;28;20093;-82
2023/01/21 03:09:30;;;;;;;127.40;29.60;;;-0.30;99.90;;;;;;5086026;28;20052;-82
2023/01/21 03:12:12;;;;;;;102.95;28.33;;;-0.30;99.90;;;;;;5060065;28;20078;-83
2023/01/21 03:18:25;;;;;;;120.80;29.52;;;-0.20;99.90;;;;;;5079463;28;20112;-82
2023/01/21 03:21:00;;;;;;;106.63;29.00;;;-0.10;99.90;;;;;;5058392;28;20060;-82
2023/01/21 03:23:31;;;;;;;112.57;28.97;;;-0.10;99.90;;;;;;5091669;28;20048;-82
2023/01/21 03:25:59;;;;;;;104.70;28.20;;;-0.10;99.90;;;;;;5087619;28;20309;-82
2023/01/21 03:28:29;;;;;;;98.88;27.23;;;-0.10;99.90;;;;;;5075777;28;20058;-83
2023/01/21 03:31:27;;;;;;;111.00;28.65;;;-0.10;99.90;;;;;;5081508;28;20074;-82
2023/01/21 03:33:58;;;;;;;95.68;28.17;;;-0.10;99.90;;;;;;5077771;28;20061;-82
2023/01/21 03:36:36;;;;;;;115.75;29.95;;;-0.10;99.90;;;;;;5074611;28;20043;-82
2023/01/21 03:39:14;;;;;;;115.85;29.42;;;-0.10;99.90;;;;;;5077294;28;20587;-85
2023/01/21 03:41:40;;;;;;;104.25;25.77;;;-0.20;99.90;;;;;;5091571;28;20043;-82
2023/01/21 03:44:06;;;;;;;87.07;25.40;;;-0.40;99.90;;;;;;5066075;28;20043;-82
2023/01/21 03:46:57;;;;;;;102.63;27.85;;;-0.50;99.90;;;;;;5088399;28;20112;-82
2023/01/21 03:49:36;;;;;;;100.72;27.27;;;-0.50;99.90;;;;;;5070296;28;20071;-82
2023/01/21 03:52:04;;;;;;;105.43;28.10;;;-0.40;99.90;;;;;;5094092;28;20139;-85
2023/01/21 03:54:30;;;;;;;108.57;29.67;;;-0.40;99.90;;;;;;5050657;28;20563;-82
2023/01/21 03:56:56;;;;;;;106.05;28.77;;;-0.40;99.90;;;;;;5067328;28;20131;-81
2023/01/21 03:59:22;;;;;;;102.72;29.73;;;-0.50;99.90;;;;;;5063077;28;20465;-81
2023/01/21 04:01:47;;;;;;;116.43;29.10;;;-0.50;99.90;;;;;;5074040;28;20043;-83
2023/01/21 04:04:13;;;;;;;112.57;29.80;;;-0.60;99.90;;;;;;5089957;28;20043;-82
2023/01/21 04:06:39;;;;;;;106.70;28.67;;;-0.50;99.90;;;;;;5050275;28;20044;-83
2023/01/21 04:09:06;;;;;;;109.50;28.23;;;-0.60;99.90;;;;;;5045581;28;20073;-86
2023/01/21 04:11:32;;;;;;;104.57;28.40;;;-0.60;99.90;;;;;;5079315;28;20040;-82
2023/01/21 04:13:58;;;;;;;108.07;28.10;;;-0.60;99.90;;;;;;5069717;28;20064;-82
2023/01/21 04:16:23;;;;;;;106.13;28.25;;;-0.40;99.90;;;;;;5058691;28;20166;-82
2023/01/21 04:18:49;;;;;;;107.13;29.05;;;-0.50;99.90;;;;;;5090919;28;20078;-83
2023/01/21 04:21:15;;;;;;;102.97;28.75;;;-0.50;99.90;;;;;;5064514;28;20042;-82
2023/01/21 04:23:40;;;;;;;98.03;27.40;;;-0.40;99.90;;;;;;5088461;28;20053;-82
2023/01/21 04:26:06;;;;;;;100.07;28.77;;;-0.30;99.90;;;;;;5075408;28;20047;-82
2023/01/21 04:28:32;;;;;;;106.70;28.83;;;-0.30;99.90;;;;;;5075172;28;20066;-83
2023/01/21 04:30:58;;;;;;;100.13;27.52;;;-0.20;99.90;;;;;;5057782;28;20497;-82
2023/01/21 04:33:24;;;;;;;100.38;28.52;;;-0.20;99.90;;;;;;5062598;28;20131;-82
2023/01/21 04:35:49;;;;;;;104.10;29.10;;;-0.20;99.90;;;;;;5085588;28;20048;-83
2023/01/21 04:38:15;;;;;;;109.25;29.33;;;-0.20;99.90;;;;;;5073179;28;20122;-83
2023/01/21 04:40:41;;;;;;;97.50;26.80;;;-0.30;99.90;;;;;;5064233;28;20047;-82
2023/01/21 04:43:07;;;;;;;92.68;26.25;;;-0.20;99.90;;;;;;5076749;28;20054;-81
2023/01/21 04:45:33;;;;;;;100.18;28.13;;;-0.20;99.90;;;;;;5055073;28;20496;-82
2023/01/21 04:47:58;;;;;;;97.88;26.92;;;-0.20;99.90;;;;;;5076950;28;20040;-82
2023/01/21 04:50:24;;;;;;;105.68;28.80;;;-0.10;99.90;;;;;;5083706;28;20051;-82
2023/01/21 04:52:50;;;;;;;99.30;28.17;;;-0.20;99.90;;;;;;5042138;28;20048;-83
2023/01/21 04:55:16;;;;;;;96.50;27.02;;;-0.10;99.90;;;;;;5059801;28;20044;-83
2023/01/21 04:57:41;;;;;;;91.63;27.58;;;0.00;99.90;;;;;;5072861;28;20397;-82
2023/01/21 05:00:08;;;;;;;95.60;27.15;;;0.00;99.90;;;;;;5056045;28;20104;-81
2023/01/21 05:02:34;;;;;;;92.22;27.25;;;0.00;99.90;;;;;;5055951;28;20695;-82
2023/01/21 05:05:00;;;;;;;98.88;28.30;;;0.00;99.90;;;;;;5059641;28;20044;-82
2023/01/21 05:07:26;;;;;;;96.43;27.48;;;0.10;99.90;;;;;;5051913;28;20097;-81
2023/01/21 05:09:52;;;;;;;96.05;27.55;;;0.10;99.90;;;;;;5072493;28;20047;-81
2023/01/21 05:12:18;;;;;;;85.50;26.42;;;0.10;99.90;;;;;;5060791;28;20067;-82
2023/01/21 05:14:43;;;;;;;93.97;26.90;;;0.10;99.90;;;;;;5076801;28;20084;-82
2023/01/21 05:17:09;;;;;;;103.72;27.80;;;0.10;99.90;;;;;;5045142;28;20118;-86
2023/01/21 05:19:35;;;;;;;95.13;27.70;;;0.20;99.90;;;;;;5073892;28;20048;-85
2023/01/21 05:22:01;;;;;;;94.15;27.20;;;0.20;99.90;;;;;;5053598;28;20044;-82
2023/01/21 05:24:26;;;;;;;93.80;25.83;;;0.20;99.90;;;;;;5072859;28;20124;-82
2023/01/21 05:26:52;;;;;;;95.35;26.27;;;0.20;99.90;;;;;;5084480;28;20046;-82
2023/01/21 05:29:21;;;;;;;94.53;27.80;;;0.20;99.90;;;;;;5053513;28;20097;-82
2023/01/21 05:31:46;;;;;;;90.63;28.35;;;0.30;99.90;;;;;;5071196;28;20432;-82
2023/01/21 05:34:12;;;;;;;97.45;26.95;;;0.30;99.90;;;;;;5067152;28;20113;-82
2023/01/21 05:36:38;;;;;;;88.43;25.75;;;0.20;99.90;;;;;;5058133;28;20096;-82
2023/01/21 05:39:04;;;;;;;99.35;27.40;;;0.40;99.90;;;;;;5078623;28;20447;-82
2023/01/21 05:41:30;;;;;;;93.07;26.65;;;0.20;99.90;;;;;;5049804;28;20039;-82
2023/01/21 05:43:56;;;;;;;100.85;27.98;;;0.20;99.90;;;;;;5090817;28;20054;-82
2023/01/21 05:46:21;;;;;;;95.93;26.40;;;0.30;99.90;;;;;;5079184;28;20062;-84
2023/01/21 05:48:47;;;;;;;89.20;27.88;;;0.30;99.90;;;;;;5055813;28;20047;-83
2023/01/21 05:51:12;;;;;;;96.60;27.73;;;0.30;99.90;;;;;;5092042;28;20496;-82
2023/01/21 05:53:38;;;;;;;96.70;27.98;;;0.30;99.90;;;;;;5081298;28;20057;-82
2023/01/21 05:56:04;;;;;;;91.97;26.80;;;0.20;99.90;;;;;;5057494;28;20051;-82
2023/01/21 05:58:30;;;;;;;91.70;27.70;;;0.20;99.90;;;;;;5071277;28;20058;-83
2023/01/21 06:00:57;;;;;;;88.15;26.45;;;0.20;99.90;;;;;;5057489;28;20047;-82
2023/01/21 06:03:24;;;;;;;84.68;26.10;;;0.20;99.90;;;;;;5072655;28;20043;-85
2023/01/21 06:05:50;;;;;;;102.57;27.95;;;0.20;99.90;;;;;;5065561;28;20043;-82
2023/01/21 06:08:16;;;;;;;92.40;27.38;;;0.20;99.90;;;;;;5090482;28;20051;-82
2023/01/21 06:10:42;;;;;;;96.07;28.73;;;0.20;99.90;;;;;;5061878;28;20405;-82
2023/01/21 06:13:11;;;;;;;95.93;28.60;;;0.20;99.90;;;;;;5052834;28;20108;-83
2023/01/21 06:15:36;;;;;;;91.03;28.80;;;0.20;99.90;;;;;;5071709;28;20050;-82
2023/01/21 06:18:02;;;;;;;92.13;26.85;;;0.20;99.90;;;;;;5060121;28;20051;-83
2023/01/21 06:20:29;;;;;;;93.97;27.63;;;0.30;99.90;;;;;;5068424;28;20086;-83
2023/01/21 06:22:56;;;;;;;87.63;27.52;;;0.20;99.90;;;;;;5069183;28;20036;-83
2023/01/21 06:25:22;;;;;;;95.07;27.90;;;0.20;99.90;;;;;;5084972;28;20388;-82
2023/01/21 06:27:48;;;;;;;101.40;28.80;;;0.10;99.90;;;;;;5061942;28;20050;-82
2023/01/21 06:30:14;;;;;;;102.90;28.98;;;0.00;99.90;;;;;;5048039;28;20048;-84
2023/01/21 06:32:39;;;;;;;96.60;27.75;;;0.00;99.90;;;;;;5078127;28;20730;-82
2023/01/21 06:35:05;;;;;;;104.43;30.35;;;0.00;99.90;;;;;;5065141;28;20043;-82
2023/01/21 06:37:31;;;;;;;96.88;28.90;;;0.00;99.90;;;;;;5095553;28;20040;-83
2023/01/21 06:39:57;;;;;;;97.80;28.98;;;0.00;99.90;;;;;;5073076;28;20095;-82
2023/01/21 06:42:23;;;;;;;101.53;28.75;;;0.00;99.90;;;;;;5075288;28;20119;-83
2023/01/21 06:44:48;;;;;;;94.70;27.50;;;-0.10;99.90;;;;;;5049989;28;20661;-82
2023/01/21 06:47:14;;;;;;;92.05;26.67;;;0.00;99.90;;;;;;5092576;28;20040;-83
2023/01/21 06:49:40;;;;;;;97.15;27.90;;;0.10;99.90;;;;;;5066595;28;20048;-83
2023/01/21 06:52:06;;;;;;;91.65;26.60;;;0.10;99.90;;;;;;5058902;28;20048;-83
2023/01/21 06:54:32;;;;;;;96.65;28.13;;;0.20;99.90;;;;;;5065314;28;20047;-85
2023/01/21 06:56:57;;;;;;;95.60;29.20;;;0.10;99.90;;;;;;5072042;28;20040;-82
2023/01/21 06:59:23;;;;;;;95.45;28.92;;;0.10;99.90;;;;;;5089520;28;20060;-82
2023/01/21 07:01:49;;;;;;;98.82;28.33;;;0.00;99.90;;;;;;5056770;28;20401;-85
2023/01/21 07:04:15;;;;;;;100.25;29.17;;;0.00;99.90;;;;;;5074855;28;20051;-82
2023/01/21 07:06:40;;;;;;;94.82;29.58;;;-0.10;99.90;;;;;;5090588;28;20040;-82
2023/01/21 07:09:09;;;;;;;93.50;27.55;;;0.00;99.90;;;;;;5050648;28;20044;-82
2023/01/21 07:11:34;;;;;;;100.07;29.45;;;0.00;99.90;;;;;;5060927;28;20675;-86
2023/01/21 07:14:00;;;;;;;100.57;28.48;;;-0.10;99.90;;;;;;5076992;28;20055;-82
2023/01/21 07:16:26;;;;;;;97.05;27.80;;;-0.10;99.90;;;;;;5092742;28;20071;-82
2023/01/21 07:18:52;;;;;;;103.80;28.85;;;-0.30;99.90;;;;;;5049220;28;20044;-83
2023/01/21 07:21:17;;;;;;;93.82;28.10;;;-0.30;99.90;;;;;;5055505;28;20040;-83
2023/01/21 07:23:46;;;;;;;94.80;27.98;;;-0.30;99.90;;;;;;5050873;28;20047;-83
2023/01/21 07:26:11;;;;;;;101.53;29.02;;;-0.40;99.90;;;;;;5053351;28;20097;-83
2023/01/21 07:28:37;;;;;;;94.00;28.85;;;-0.30;99.90;;;;;;5088195;28;20059;-86
2023/01/21 07:31:03;;;;;;;83.53;28.00;;;-0.30;99.90;;;;;;5067522;28;20421;-83
2023/01/21 07:33:29;;;;;;;97.22;28.95;;;-0.30;99.90;;;;;;5074796;28;20076;-84
2023/01/21 07:35:54;;;;;;;92.00;28.63;;;-0.30;99.90;;;;;;5071917;28;20126;-84
2023/01/21 07:38:20;;;;;;;92.50;29.23;;;-0.20;99.90;;;;;;5049294;28;20051;-82
2023/01/21 07:40:50;;;;;;;95.40;28.73;;;-0.20;99.90;;;;;;5059025;28;20476;-81
2023/01/21 07:43:16;;;;;;;92.28;30.27;;;-0.20;99.90;;;;;;5089248;28;20148;-82
2023/01/21 07:45:42;;;;;;;91.13;30.13;;;-0.10;99.90;;;;;;5072739;28;20089;-84
2023/01/21 07:48:08;;;;;;;92.00;30.17;;;-0.20;99.90;;;;;;5082459;28;20467;-81
2023/01/21 07:50:34;;;;;;;91.35;29.52;;;-0.40;99.90;;;;;;5061277;28;20043;-79
2023/01/21 07:53:00;;;;;;;97.82;31.67;;;-0.50;99.90;;;;;;5036307;28;20101;-81
2023/01/21 07:55:27;;;;;;;98.28;30.35;;;-0.50;99.90;;;;;;5073203;28;20083;-82
2023/01/21 07:57:55;;;;;;;97.35;30.35;;;-0.70;99.90;;;;;;5079755;28;20072;-81
2023/01/21 08:00:22;;;;;;;96.93;30.30;;;-0.60;99.90;;;;;;5093967;28;20538;-83
2023/01/21 08:02:55;;;;;;;101.68;30.95;;;-0.50;99.90;;;;;;5078831;28;20044;-83
2023/01/21 08:05:22;;;;;;;93.75;30.77;;;-0.40;99.90;;;;;;5076159;28;20412;-83
2023/01/21 08:07:47;;;;;;;91.18;28.75;;;-0.40;99.90;;;;;;5074863;28;20044;-82
2023/01/21 08:10:14;;;;;;;91.40;31.50;;;-0.30;99.90;;;;;;5088877;28;20089;-82
2023/01/21 08:12:40;;;;;;;96.00;29.95;;;-0.20;99.90;;;;;;5062063;28;20076;-84
2023/01/21 08:15:07;;;;;;;91.95;29.35;;;-0.20;99.90;;;;;;5074612;28;20127;-83
2023/01/21 08:17:33;;;;;;;98.20;31.80;;;-0.10;99.90;;;;;;5072035;28;20043;-83
2023/01/21 08:20:02;;;;;;;107.72;35.78;;;0.00;99.90;;;;;;5084820;28;20043;-84
2023/01/21 08:22:28;;;;;;;103.00;38.55;;;-0.10;99.90;;;;;;5056407;28;20489;-84
2023/01/21 08:24:54;;;;;;;97.40;35.95;;;0.00;99.90;;;;;;5057861;28;20127;-86
2023/01/21 08:27:19;;;;;;;90.80;32.67;;;0.00;99.90;;;;;;5037565;28;20040;-84
2023/01/21 08:30:06;;;;;;;91.55;31.65;;;0.10;99.90;;;;;;5081382;28;20097;-86
2023/01/21 08:32:31;;;;;;;89.07;32.47;;;0.10;99.90;;;;;;5055528;28;20051;-80
2023/01/21 08:34:57;;;;;;;93.03;30.92;;;0.10;99.90;;;;;;5066686;28;20392;-81
2023/01/21 08:37:23;;;;;;;90.80;32.25;;;0.20;99.90;;;;;;5078176;28;20077;-81
2023/01/21 08:39:48;;;;;;;89.65;30.90;;;0.20;99.90;;;;;;5053585;28;20047;-82
2023/01/21 08:42:17;;;;;;;90.20;30.75;;;0.20;99.90;;;;;;5053208;28;20044;-85
2023/01/21 08:44:44;;;;;;;84.10;30.77;;;0.30;99.90;;;;;;5058796;28;20051;-83
2023/01/21 08:47:10;;;;;;;86.22;29.75;;;0.30;99.90;;;;;;5053518;28;20040;-84
2023/01/21 08:49:36;;;;;;;84.70;31.17;;;0.40;99.90;;;;;;5063563;28;20047;-84
2023/01/21 08:52:02;;;;;;;88.30;31.17;;;0.30;99.90;;;;;;5071955;28;20044;-83
2023/01/21 08:54:30;;;;;;;88.22;32.22;;;0.40;99.90;;;;;;5074448;28;20059;-83
2023/01/21 08:56:56;;;;;;;84.93;31.60;;;0.40;99.90;;;;;;5075877;28;20388;-87
2023/01/21 08:59:27;;;;;;;78.40;30.25;;;0.30;99.90;;;;;;5062792;28;20126;-85
2023/01/21 09:01:54;;;;;;;88.40;31.65;;;0.40;99.90;;;;;;5062023;27;20048;-81
2023/01/21 09:04:19;;;;;;;83.68;30.85;;;0.40;99.90;;;;;;5053789;28;20070;-84
2023/01/21 09:06:45;;;;;;;84.32;30.98;;;0.40;99.90;;;;;;5093218;28;20493;-83
2023/01/21 09:09:11;;;;;;;76.90;31.48;;;0.40;99.90;;;;;;5051752;28;20058;-84
2023/01/21 09:11:37;;;;;;;80.50;31.67;;;0.50;99.90;;;;;;5071643;28;20081;-84
2023/01/21 09:14:03;;;;;;;76.10;31.55;;;0.50;99.90;;;;;;5057520;28;20048;-85
2023/01/21 09:16:32;;;;;;;82.38;30.48;;;0.50;99.90;;;;;;5067605;27;20052;-82
2023/01/21 09:18:59;;;;;;;81.13;29.95;;;0.50;99.90;;;;;;5077171;28;20055;-83
2023/01/21 09:21:25;;;;;;;80.80;31.52;;;0.40;99.90;;;;;;5082712;27;20098;-84
2023/01/21 09:23:51;;;;;;;83.32;31.48;;;0.40;99.90;;;;;;5066135;28;20039;-83
2023/01/21 09:26:19;;;;;;;78.57;32.17;;;0.20;99.90;;;;;;5069294;28;20061;-84
2023/01/21 09:28:50;;;;;;;82.55;33.17;;;0.10;99.90;;;;;;5074736;28;20043;-83
2023/01/21 09:31:17;;;;;;;87.35;33.03;;;0.00;99.90;;;;;;5083710;28;20492;-87
2023/01/21 09:33:45;;;;;;;100.25;37.60;;;-0.10;99.90;;;;;;5078010;28;20079;-83
2023/01/21 09:36:26;;;;;;;118.35;46.00;;;-0.10;99.90;;;;;;5090745;28;20067;-81
2023/01/21 09:38:53;;;;;;;99.30;36.50;;;0.00;99.90;;;;;;5094342;28;20062;-80
2023/01/21 09:41:40;;;;;;;86.47;34.80;;;0.20;99.90;;;;;;5062379;28;20678;-82
2023/01/21 09:44:32;;;;;;;86.22;32.47;;;0.20;99.90;;;;;;5079228;28;20066;-82
2023/01/21 09:47:10;;;;;;;81.70;31.40;;;0.20;99.90;;;;;;5095345;28;20043;-83
2023/01/21 09:49:43;;;;;;;96.63;34.22;;;0.20;99.90;;;;;;5097425;28;20048;-82
2023/01/21 09:52:25;;;;;;;89.35;34.25;;;0.20;99.90;;;;;;5092855;28;20071;-86
2023/01/21 09:54:51;;;;;;;90.95;32.53;;;0.10;99.90;;;;;;5085608;28;20097;-86
2023/01/21 09:57:33;;;;;;;89.22;34.75;;;0.00;99.90;;;;;;5098028;28;20492;-84
2023/01/21 10:00:18;;;;;;;99.63;33.13;;;0.00;99.90;;;;;;5074224;28;20047;-84
2023/01/21 10:03:05;;;;;;;87.78;32.30;;;-0.10;99.90;;;;;;5067096;28;20079;-83
2023/01/21 10:06:00;;;;;;;96.03;32.60;;;-0.10;99.90;;;;;;5097333;28;20051;-82
2023/01/21 10:08:35;;;;;;;87.40;32.67;;;-0.10;99.90;;;;;;5083713;28;20441;-82
2023/01/21 10:11:17;;;;;;;89.70;32.75;;;-0.20;99.90;;;;;;5089261;28;20051;-83
2023/01/21 10:14:04;;;;;;;98.05;36.40;;;-0.20;99.90;;;;;;5077397;28;20051;-82
2023/01/21 10:16:33;;;;;;;88.65;34.58;;;-0.20;99.90;;;;;;5073515;28;20058;-83
2023/01/21 10:19:01;;;;;;;99.25;36.25;;;-0.20;99.90;;;;;;5099892;28;20419;-85
2023/01/21 10:21:41;;;;;;;102.40;35.65;;;-0.30;99.90;;;;;;5082509;28;20051;-83
2023/01/21 10:24:17;;;;;;;94.68;34.45;;;-0.20;99.90;;;;;;5084654;28;20104;-84
2023/01/21 10:26:46;;;;;;;89.13;33.30;;;-0.30;99.90;;;;;;5079627;28;20052;-85
2023/01/21 10:29:17;;;;;;;98.40;35.10;;;-0.20;99.90;;;;;;5080513;28;20776;-85
2023/01/21 10:31:53;;;;;;;93.07;36.30;;;-0.30;99.90;;;;;;5087759;28;20050;-82
2023/01/21 10:34:19;;;;;;;;;;;-0.30;99.90;;;;;;5078478;28;20130;-85
2023/01/21 10:37:03;;;;;;;91.20;34.00;;;-0.30;99.90;;;;;;5071093;28;20059;-83
2023/01/21 10:39:58;;;;;;;94.30;33.95;;;-0.30;99.90;;;;;;5100434;28;20044;-83
2023/01/21 10:42:42;;;;;;;81.60;32.40;;;-0.20;99.90;;;;;;5001293;28;20054;-82
2023/01/21 10:45:27;;;;;;;84.50;34.50;;;-0.20;99.90;;;;;;5073389;28;20040;-85
2023/01/21 10:48:43;;;;;;;75.95;32.75;;;-0.20;99.90;;;;;;5088777;28;20389;-83
2023/01/21 10:51:32;;;;;;;81.72;32.75;;;-0.10;99.90;;;;;;4994360;28;20521;-82
2023/01/21 10:54:04;;;;;;;89.55;34.92;;;0.00;99.90;;;;;;5063923;28;20094;-83
2023/01/21 10:56:55;;;;;;;76.28;32.22;;;0.00;99.90;;;;;;5065312;28;20120;-83
2023/01/21 10:59:26;;;;;;;81.63;35.08;;;0.10;99.90;;;;;;5068408;28;20038;-82
2023/01/21 11:02:13;;;;;;;75.35;31.30;;;0.20;99.90;;;;;;5068598;28;20099;-82
2023/01/21 11:04:40;;;;;;;80.80;33.25;;;0.30;99.90;;;;;;5083379;28;20055;-84
2023/01/21 11:07:13;;;;;;;75.10;31.48;;;0.30;99.90;;;;;;5059913;28;20038;-87
2023/01/21 11:09:44;;;;;;;69.50;31.17;;;0.30;99.90;;;;;;5071308;28;20048;-83
2023/01/21 11:12:13;;;;;;;69.43;31.30;;;0.60;99.90;;;;;;5074219;28;20048;-83
2023/01/21 11:14:38;;;;;;;68.82;31.45;;;0.40;99.90;;;;;;5082451;28;20482;-83
2023/01/21 11:17:04;;;;;;;63.15;30.05;;;0.50;99.90;;;;;;5079899;28;20044;-83
2023/01/21 11:19:30;;;;;;;62.13;30.45;;;0.50;99.90;;;;;;5094356;28;20470;-83
2023/01/21 11:22:11;;;;;;;65.90;28.58;;;0.60;99.90;;;;;;5063806;28;20040;-83
2023/01/21 11:24:49;;;;;;;58.10;26.88;;;0.70;99.90;;;;;;5078453;28;20067;-82
2023/01/21 11:27:22;;;;;;;57.40;28.63;;;0.70;99.90;;;;;;5088588;28;20036;-83
2023/01/21 11:29:49;;;;;;;57.17;29.33;;;0.70;99.90;;;;;;5093222;28;20556;-82
2023/01/21 11:32:21;;;;;;;53.25;26.20;;;0.70;99.90;;;;;;5112483;28;20083;-82
2023/01/21 11:34:49;;;;;;;54.42;23.38;;;0.70;99.90;;;;;;5114808;28;20526;-80
2023/01/21 11:37:21;;;;;;;49.47;23.02;;;0.80;99.90;;;;;;5085043;28;20500;-82
2023/01/21 11:39:56;;;;;;;45.13;21.77;;;0.80;99.90;;;;;;5068856;28;20048;-83
2023/01/21 11:42:22;;;;;;;42.67;21.98;;;0.90;99.90;;;;;;5093196;28;20036;-84
2023/01/21 11:45:04;;;;;;;44.50;22.55;;;1.00;99.90;;;;;;5072625;28;20376;-85
2023/01/21 11:47:35;;;;;;;45.90;21.35;;;0.90;99.90;;;;;;5096911;28;20050;-84
2023/01/21 11:50:31;;;;;;;39.70;20.65;;;1.00;99.90;;;;;;5095523;28;20044;-82
2023/01/21 11:53:07;;;;;;;42.95;21.20;;;1.10;99.90;;;;;;5058178;28;20055;-84
2023/01/21 11:55:44;;;;;;;37.17;20.08;;;1.30;99.90;;;;;;5068658;28;20078;-84
2023/01/21 11:58:30;;;;;;;39.92;21.67;;;1.30;99.90;;;;;;5063982;28;20523;-84
2023/01/21 12:01:02;;;;;;;41.72;21.52;;;1.50;99.90;;;;;;5086853;28;20509;-83
2023/01/21 12:03:46;;;;;;;33.20;18.10;;;1.80;99.90;;;;;;5086548;27;20071;-83
2023/01/21 12:06:21;;;;;;;35.90;19.50;;;2.00;99.90;;;;;;5100785;28;20043;-83
2023/01/21 12:08:50;;;;;;;38.13;19.08;;;2.20;99.90;;;;;;5084743;28;20048;-83
2023/01/21 12:11:28;;;;;;;32.25;18.30;;;2.40;99.90;;;;;;5075158;28;20051;-89
2023/01/21 12:14:25;;;;;;;38.33;19.58;;;2.60;99.90;;;;;;5074532;28;20050;-83
2023/01/21 12:17:04;;;;;;;38.38;19.92;;;2.80;99.90;;;;;;5096150;28;20047;-83
2023/01/21 12:19:46;;;;;;;33.08;18.00;;;2.90;99.90;;;;;;5089991;28;20059;-86
2023/01/21 12:22:17;;;;;;;32.35;18.38;;;2.90;99.90;;;;;;5092143;28;20047;-84
2023/01/21 12:25:09;;;;;;;36.85;19.58;;;2.90;99.90;;;;;;5097815;28;20039;-83
2023/01/21 12:28:06;;;;;;;34.67;19.05;;;2.90;99.90;;;;;;5063060;28;20044;-83
2023/01/21 12:30:47;;;;;;;32.28;18.38;;;2.80;99.90;;;;;;5090589;28;20044;-82
2023/01/21 12:33:22;;;;;;;33.10;18.83;;;2.90;99.90;;;;;;5085967;28;20138;-83
2023/01/21 12:35:52;;;;;;;34.47;19.38;;;2.90;99.90;;;;;;5088408;28;20449;-83
2023/01/21 12:38:20;;;;;;;33.88;19.00;;;2.90;99.90;;;;;;5084051;28;20067;-82
2023/01/21 12:41:09;;;;;;;33.13;18.58;;;3.10;99.90;;;;;;5083186;28;20093;-82
2023/01/21 12:43:39;;;;;;;32.83;18.60;;;3.20;99.90;;;;;;5080259;28;20493;-82
2023/01/21 12:46:33;;;;;;;29.90;17.65;;;3.40;99.90;;;;;;5092060;28;20051;-82
2023/01/21 12:49:18;;;;;;;29.05;17.40;;;3.40;99.90;;;;;;5078378;28;20132;-79
2023/01/21 12:51:48;;;;;;;30.33;17.25;;;3.30;99.90;;;;;;5080067;28;20553;-83
2023/01/21 12:54:23;;;;;;;29.20;16.70;;;3.40;99.90;;;;;;5089663;28;20047;-82